sensor_id;sensor_type;location;lat;lon;timestamp;pressure;altitude;pressure_sealevel;temperature;humidity
7441;BME280;29616;51.950;8.572;2022-12-29T00:02:18;98815.28;;;10.78;100.00
7441;BME280;29616;51.950;8.572;2022-12-29T00:04:46;98813.69;;;10.84;100.00
7441;BME280;29616;51.950;8.572;2022-12-29T00:07:14;98814.06;;;10.81;100.00
7441;BME280;29616;51.950;8.572;2022-12-29T00:09:43;98801.97;;;10.75;100.00
7441;BME280;29616;51.950;8.572;2022-12-29T00:12:12;98797.81;;;10.65;100.00
7441;BME280;29616;51.950;8.572;2022-12-29T00:14:40;98800.06;;;10.61;100.00
7441;BME280;29616;51.950;8.572;2022-12-29T00:17:26;98804.41;;;10.70;100.00
7441;BME280;29616;51.950;8.572;2022-12-29T00:19:54;98789.66;;;10.79;100.00
7441;BME280;29616;51.950;8.572;2022-12-29T00:22:40;98803.81;;;10.83;100.00
7441;BME280;29616;51.950;8.572;2022-12-29T00:25:26;98791.72;;;10.77;100.00
7441;BME280;29616;51.950;8.572;2022-12-29T00:28:11;98776.56;;;10.89;100.00
7441;BME280;29616;51.950;8.572;2022-12-29T00:30:59;98773.66;;;10.91;100.00
7441;BME280;29616;51.950;8.572;2022-12-29T00:33:46;98774.47;;;10.91;100.00
7441;BME280;29616;51.950;8.572;2022-12-29T00:36:35;98766.13;;;10.93;100.00
7441;BME280;29616;51.950;8.572;2022-12-29T00:39:06;98755.63;;;10.96;100.00
7441;BME280;29616;51.950;8.572;2022-12-29T00:42:05;98756.03;;;10.93;100.00
7441;BME280;29616;51.950;8.572;2022-12-29T00:44:59;98754.03;;;11.02;100.00
7441;BME280;29616;51.950;8.572;2022-12-29T00:47:29;98747.28;;;10.98;100.00
7441;BME280;29616;51.950;8.572;2022-12-29T00:49:58;98753.22;;;11.02;100.00
7441;BME280;29616;51.950;8.572;2022-12-29T00:52:27;98751.78;;;11.06;100.00
7441;BME280;29616;51.950;8.572;2022-12-29T00:54:55;98752.16;;;11.03;100.00
7441;BME280;29616;51.950;8.572;2022-12-29T00:57:23;98748.56;;;11.02;100.00
7441;BME280;29616;51.950;8.572;2022-12-29T00:59:51;98742.28;;;11.02;100.00
7441;BME280;29616;51.950;8.572;2022-12-29T01:02:19;98735.84;;;10.94;100.00
7441;BME280;29616;51.950;8.572;2022-12-29T01:04:47;98744.34;;;11.00;100.00
7441;BME280;29616;51.950;8.572;2022-12-29T01:07:17;98734.09;;;11.02;100.00
7441;BME280;29616;51.950;8.572;2022-12-29T01:09:45;98729.63;;;11.01;100.00
7441;BME280;29616;51.950;8.572;2022-12-29T01:12:33;98725.09;;;11.08;100.00
7441;BME280;29616;51.950;8.572;2022-12-29T01:15:13;98714.94;;;11.02;100.00
7441;BME280;29616;51.950;8.572;2022-12-29T01:17:41;98731.72;;;10.99;100.00
7441;BME280;29616;51.950;8.572;2022-12-29T01:20:11;98735.00;;;11.09;100.00
7441;BME280;29616;51.950;8.572;2022-12-29T01:22:41;98729.06;;;11.05;100.00
7441;BME280;29616;51.950;8.572;2022-12-29T01:25:10;98723.78;;;11.04;100.00
7441;BME280;29616;51.950;8.572;2022-12-29T01:27:38;98724.06;;;11.23;100.00
7441;BME280;29616;51.950;8.572;2022-12-29T01:30:07;98720.50;;;11.23;100.00
7441;BME280;29616;51.950;8.572;2022-12-29T01:32:36;98723.22;;;11.23;100.00
7441;BME280;29616;51.950;8.572;2022-12-29T01:35:04;98717.97;;;11.07;100.00
7441;BME280;29616;51.950;8.572;2022-12-29T01:37:34;98713.34;;;10.92;100.00
7441;BME280;29616;51.950;8.572;2022-12-29T01:40:04;98707.00;;;10.92;100.00
7441;BME280;29616;51.950;8.572;2022-12-29T01:42:33;98698.53;;;10.87;100.00
7441;BME280;29616;51.950;8.572;2022-12-29T01:45:02;98678.25;;;10.81;100.00
7441;BME280;29616;51.950;8.572;2022-12-29T01:47:33;98691.75;;;10.98;100.00
7441;BME280;29616;51.950;8.572;2022-12-29T01:50:06;98685.91;;;11.01;100.00
7441;BME280;29616;51.950;8.572;2022-12-29T01:52:38;98696.47;;;11.04;100.00
7441;BME280;29616;51.950;8.572;2022-12-29T01:55:11;98692.28;;;11.08;100.00
7441;BME280;29616;51.950;8.572;2022-12-29T01:57:40;98690.09;;;11.18;100.00
7441;BME280;29616;51.950;8.572;2022-12-29T02:00:13;98676.91;;;11.21;100.00
7441;BME280;29616;51.950;8.572;2022-12-29T02:02:49;98687.38;;;11.18;100.00
7441;BME280;29616;51.950;8.572;2022-12-29T02:05:21;98689.38;;;11.09;100.00
7441;BME280;29616;51.950;8.572;2022-12-29T02:07:51;98686.75;;;11.01;100.00
7441;BME280;29616;51.950;8.572;2022-12-29T02:10:23;98701.63;;;10.84;100.00
7441;BME280;29616;51.950;8.572;2022-12-29T02:12:52;98692.41;;;10.85;100.00
7441;BME280;29616;51.950;8.572;2022-12-29T02:15:20;98680.91;;;10.75;100.00
7441;BME280;29616;51.950;8.572;2022-12-29T02:18:01;98688.63;;;10.71;100.00
7441;BME280;29616;51.950;8.572;2022-12-29T02:20:41;98690.50;;;10.71;100.00
7441;BME280;29616;51.950;8.572;2022-12-29T02:23:39;98674.03;;;10.64;100.00
7441;BME280;29616;51.950;8.572;2022-12-29T02:29:08;98677.13;;;10.76;100.00
7441;BME280;29616;51.950;8.572;2022-12-29T02:31:45;98676.28;;;10.75;100.00
7441;BME280;29616;51.950;8.572;2022-12-29T02:34:20;98656.88;;;10.70;100.00
7441;BME280;29616;51.950;8.572;2022-12-29T02:36:54;98650.66;;;10.76;100.00
7441;BME280;29616;51.950;8.572;2022-12-29T02:39:29;98665.06;;;11.00;100.00
7441;BME280;29616;51.950;8.572;2022-12-29T02:42:03;98669.28;;;11.17;100.00
7441;BME280;29616;51.950;8.572;2022-12-29T02:44:39;98658.72;;;11.28;100.00
7441;BME280;29616;51.950;8.572;2022-12-29T02:47:13;98658.91;;;11.27;100.00
7441;BME280;29616;51.950;8.572;2022-12-29T02:49:46;98657.75;;;11.36;100.00
7441;BME280;29616;51.950;8.572;2022-12-29T02:52:17;98657.53;;;11.52;100.00
7441;BME280;29616;51.950;8.572;2022-12-29T02:54:48;98636.41;;;11.46;100.00
7441;BME280;29616;51.950;8.572;2022-12-29T02:57:28;98641.56;;;11.55;100.00
7441;BME280;29616;51.950;8.572;2022-12-29T02:59:58;98629.25;;;11.66;100.00
7441;BME280;29616;51.950;8.572;2022-12-29T03:02:40;98638.50;;;11.65;100.00
7441;BME280;29616;51.950;8.572;2022-12-29T03:05:17;98633.69;;;11.67;100.00
7441;BME280;29616;51.950;8.572;2022-12-29T03:07:52;98628.47;;;11.51;100.00
7441;BME280;29616;51.950;8.572;2022-12-29T03:10:32;98640.13;;;11.60;100.00
7441;BME280;29616;51.950;8.572;2022-12-29T03:13:11;98641.03;;;11.67;100.00
7441;BME280;29616;51.950;8.572;2022-12-29T03:16:02;98630.31;;;11.65;100.00
7441;BME280;29616;51.950;8.572;2022-12-29T03:18:38;98626.88;;;11.63;100.00
7441;BME280;29616;51.950;8.572;2022-12-29T03:21:11;98621.03;;;11.66;100.00
7441;BME280;29616;51.950;8.572;2022-12-29T03:23:42;98630.31;;;11.65;100.00
7441;BME280;29616;51.950;8.572;2022-12-29T03:26:16;98625.31;;;11.69;100.00
7441;BME280;29616;51.950;8.572;2022-12-29T03:28:47;98618.59;;;11.71;100.00
7441;BME280;29616;51.950;8.572;2022-12-29T03:31:21;98626.41;;;11.74;100.00
7441;BME280;29616;51.950;8.572;2022-12-29T03:33:53;98615.47;;;11.74;100.00
7441;BME280;29616;51.950;8.572;2022-12-29T03:36:32;98617.34;;;11.74;100.00
7441;BME280;29616;51.950;8.572;2022-12-29T03:39:08;98614.91;;;11.64;100.00
7441;BME280;29616;51.950;8.572;2022-12-29T03:41:40;98608.97;;;11.75;100.00
7441;BME280;29616;51.950;8.572;2022-12-29T03:44:10;98597.38;;;11.73;100.00
7441;BME280;29616;51.950;8.572;2022-12-29T03:46:39;98607.06;;;11.76;100.00
7441;BME280;29616;51.950;8.572;2022-12-29T03:49:08;98603.59;;;11.88;100.00
7441;BME280;29616;51.950;8.572;2022-12-29T03:51:38;98607.97;;;11.83;100.00
7441;BME280;29616;51.950;8.572;2022-12-29T03:54:06;98592.78;;;11.80;100.00
7441;BME280;29616;51.950;8.572;2022-12-29T03:56:34;98597.34;;;11.94;100.00
7441;BME280;29616;51.950;8.572;2022-12-29T03:59:03;98581.25;;;11.85;100.00
7441;BME280;29616;51.950;8.572;2022-12-29T04:01:37;98601.50;;;11.90;100.00
7441;BME280;29616;51.950;8.572;2022-12-29T04:04:06;98596.28;;;11.95;100.00
7441;BME280;29616;51.950;8.572;2022-12-29T04:06:36;98593.94;;;11.92;100.00
7441;BME280;29616;51.950;8.572;2022-12-29T04:09:07;98593.53;;;11.95;100.00
7441;BME280;29616;51.950;8.572;2022-12-29T04:11:42;98594.41;;;11.96;100.00
7441;BME280;29616;51.950;8.572;2022-12-29T04:14:10;98600.34;;;11.99;100.00
7441;BME280;29616;51.950;8.572;2022-12-29T04:16:38;98593.53;;;11.95;100.00
7441;BME280;29616;51.950;8.572;2022-12-29T04:19:08;98607.84;;;11.91;100.00
7441;BME280;29616;51.950;8.572;2022-12-29T04:21:38;98598.25;;;12.01;100.00
7441;BME280;29616;51.950;8.572;2022-12-29T04:24:06;98594.53;;;11.88;100.00
7441;BME280;29616;51.950;8.572;2022-12-29T04:26:39;98598.78;;;11.90;100.00
7441;BME280;29616;51.950;8.572;2022-12-29T04:29:42;98591.88;;;11.94;100.00
7441;BME280;29616;51.950;8.572;2022-12-29T04:32:45;98582.56;;;11.89;100.00
7441;BME280;29616;51.950;8.572;2022-12-29T04:35:14;98592.31;;;11.98;100.00
7441;BME280;29616;51.950;8.572;2022-12-29T04:37:43;98582.03;;;12.00;100.00
7441;BME280;29616;51.950;8.572;2022-12-29T04:40:12;98581.19;;;11.99;100.00
7441;BME280;29616;51.950;8.572;2022-12-29T04:42:40;98582.59;;;11.95;100.00
7441;BME280;29616;51.950;8.572;2022-12-29T04:45:09;98573.34;;;11.96;100.00
7441;BME280;29616;51.950;8.572;2022-12-29T04:47:50;98571.66;;;11.95;100.00
7441;BME280;29616;51.950;8.572;2022-12-29T04:50:43;98574.53;;;11.87;100.00
7441;BME280;29616;51.950;8.572;2022-12-29T04:53:18;98572.78;;;11.80;100.00
7441;BME280;29616;51.950;8.572;2022-12-29T04:55:48;98561.03;;;11.65;100.00
7441;BME280;29616;51.950;8.572;2022-12-29T04:58:17;98569.56;;;11.55;100.00
7441;BME280;29616;51.950;8.572;2022-12-29T05:00:49;98577.63;;;11.42;100.00
7441;BME280;29616;51.950;8.572;2022-12-29T05:03:19;98578.69;;;11.41;100.00
7441;BME280;29616;51.950;8.572;2022-12-29T05:05:48;98577.00;;;11.40;100.00
7441;BME280;29616;51.950;8.572;2022-12-29T05:08:17;98563.91;;;11.35;100.00
7441;BME280;29616;51.950;8.572;2022-12-29T05:10:53;98568.41;;;11.43;100.00
7441;BME280;29616;51.950;8.572;2022-12-29T05:13:21;98574.53;;;11.45;100.00
7441;BME280;29616;51.950;8.572;2022-12-29T05:15:50;98559.84;;;11.52;100.00
7441;BME280;29616;51.950;8.572;2022-12-29T05:18:19;98564.50;;;11.52;100.00
7441;BME280;29616;51.950;8.572;2022-12-29T05:20:48;98558.22;;;11.58;100.00
7441;BME280;29616;51.950;8.572;2022-12-29T05:23:20;98561.94;;;11.50;100.00
7441;BME280;29616;51.950;8.572;2022-12-29T05:25:55;98553.00;;;11.63;100.00
7441;BME280;29616;51.950;8.572;2022-12-29T05:28:31;98538.69;;;11.61;100.00
7441;BME280;29616;51.950;8.572;2022-12-29T05:31:08;98546.31;;;11.66;100.00
7441;BME280;29616;51.950;8.572;2022-12-29T05:33:37;98545.16;;;11.75;100.00
7441;BME280;29616;51.950;8.572;2022-12-29T05:36:05;98541.78;;;11.73;100.00
7441;BME280;29616;51.950;8.572;2022-12-29T05:38:37;98530.00;;;11.72;100.00
7441;BME280;29616;51.950;8.572;2022-12-29T05:41:05;98530.44;;;11.76;100.00
7441;BME280;29616;51.950;8.572;2022-12-29T05:44:06;98539.44;;;11.70;100.00
7441;BME280;29616;51.950;8.572;2022-12-29T05:46:52;98529.91;;;11.87;100.00
7441;BME280;29616;51.950;8.572;2022-12-29T05:49:42;98526.81;;;11.96;100.00
7441;BME280;29616;51.950;8.572;2022-12-29T05:52:20;98530.09;;;11.85;100.00
7441;BME280;29616;51.950;8.572;2022-12-29T05:54:50;98532.44;;;11.88;100.00
7441;BME280;29616;51.950;8.572;2022-12-29T05:57:21;98530.19;;;11.98;100.00
7441;BME280;29616;51.950;8.572;2022-12-29T05:59:58;98530.19;;;11.98;100.00
7441;BME280;29616;51.950;8.572;2022-12-29T06:02:26;98538.41;;;11.98;100.00
7441;BME280;29616;51.950;8.572;2022-12-29T06:04:55;98545.97;;;11.96;100.00
7441;BME280;29616;51.950;8.572;2022-12-29T06:07:23;98544.38;;;12.08;100.00
7441;BME280;29616;51.950;8.572;2022-12-29T06:09:52;98544.78;;;12.05;100.00
7441;BME280;29616;51.950;8.572;2022-12-29T06:12:20;98542.09;;;12.12;100.00
7441;BME280;29616;51.950;8.572;2022-12-29T06:14:51;98541.47;;;12.16;100.00
7441;BME280;29616;51.950;8.572;2022-12-29T06:17:20;98536.81;;;12.10;100.00
7441;BME280;29616;51.950;8.572;2022-12-29T06:19:50;98541.00;;;12.06;100.00
7441;BME280;29616;51.950;8.572;2022-12-29T06:22:19;98542.31;;;12.10;100.00
7441;BME280;29616;51.950;8.572;2022-12-29T06:24:47;98546.78;;;12.18;100.00
7441;BME280;29616;51.950;8.572;2022-12-29T06:27:17;98544.59;;;12.13;100.00
7441;BME280;29616;51.950;8.572;2022-12-29T06:29:46;98541.06;;;12.20;100.00
7441;BME280;29616;51.950;8.572;2022-12-29T06:32:15;98550.16;;;12.20;100.00
7441;BME280;29616;51.950;8.572;2022-12-29T06:34:47;98536.91;;;12.24;100.00
7441;BME280;29616;51.950;8.572;2022-12-29T06:37:15;98559.91;;;12.29;100.00
7441;BME280;29616;51.950;8.572;2022-12-29T06:39:45;98567.63;;;12.19;100.00
7441;BME280;29616;51.950;8.572;2022-12-29T06:42:14;98582.06;;;12.34;100.00
7441;BME280;29616;51.950;8.572;2022-12-29T06:45:12;98567.69;;;12.32;100.00
7441;BME280;29616;51.950;8.572;2022-12-29T06:47:41;98574.09;;;12.39;100.00
7441;BME280;29616;51.950;8.572;2022-12-29T06:50:09;98558.00;;;12.30;100.00
7441;BME280;29616;51.950;8.572;2022-12-29T06:52:37;98583.34;;;12.38;100.00
7441;BME280;29616;51.950;8.572;2022-12-29T06:55:05;98602.34;;;12.40;100.00
7441;BME280;29616;51.950;8.572;2022-12-29T06:57:34;98601.19;;;12.28;100.00
7441;BME280;29616;51.950;8.572;2022-12-29T07:00:02;98610.28;;;12.07;100.00
7441;BME280;29616;51.950;8.572;2022-12-29T07:02:33;98593.53;;;11.95;100.00
7441;BME280;29616;51.950;8.572;2022-12-29T07:05:01;98611.78;;;12.09;100.00
7441;BME280;29616;51.950;8.572;2022-12-29T07:07:29;98610.16;;;12.15;100.00
7441;BME280;29616;51.950;8.572;2022-12-29T07:09:57;98624.72;;;12.22;100.00
7441;BME280;29616;51.950;8.572;2022-12-29T07:12:25;98613.19;;;12.27;100.00
7441;BME280;29616;51.950;8.572;2022-12-29T07:14:53;98597.41;;;12.29;100.00
7441;BME280;29616;51.950;8.572;2022-12-29T07:17:21;98610.88;;;12.30;100.00
7441;BME280;29616;51.950;8.572;2022-12-29T07:19:51;98605.81;;;12.27;100.00
7441;BME280;29616;51.950;8.572;2022-12-29T07:22:19;98603.50;;;12.24;100.00
7441;BME280;29616;51.950;8.572;2022-12-29T07:24:47;98601.56;;;12.25;100.00
7441;BME280;29616;51.950;8.572;2022-12-29T07:27:15;98599.44;;;12.20;100.00
7441;BME280;29616;51.950;8.572;2022-12-29T07:29:43;98620.25;;;12.14;100.00
7441;BME280;29616;51.950;8.572;2022-12-29T07:32:11;98692.09;;;11.95;100.00
7441;BME280;29616;51.950;8.572;2022-12-29T07:34:40;98639.50;;;11.07;100.00
7441;BME280;29616;51.950;8.572;2022-12-29T07:37:09;98665.63;;;10.51;100.00
7441;BME280;29616;51.950;8.572;2022-12-29T07:39:38;98672.19;;;10.27;100.00
7441;BME280;29616;51.950;8.572;2022-12-29T07:42:06;98671.47;;;10.11;100.00
7441;BME280;29616;51.950;8.572;2022-12-29T07:44:41;98671.25;;;9.98;100.00
7441;BME280;29616;51.950;8.572;2022-12-29T07:47:17;98663.41;;;9.95;100.00
7441;BME280;29616;51.950;8.572;2022-12-29T07:49:46;98681.69;;;10.09;100.00
7441;BME280;29616;51.950;8.572;2022-12-29T07:52:15;98676.59;;;10.14;100.00
7441;BME280;29616;51.950;8.572;2022-12-29T07:54:43;98685.06;;;10.19;100.00
7441;BME280;29616;51.950;8.572;2022-12-29T07:57:12;98689.53;;;10.12;100.00
7441;BME280;29616;51.950;8.572;2022-12-29T07:59:40;98674.88;;;10.13;100.00
7441;BME280;29616;51.950;8.572;2022-12-29T08:02:09;98677.53;;;10.21;100.00
7441;BME280;29616;51.950;8.572;2022-12-29T08:04:38;98691.84;;;10.23;100.00
7441;BME280;29616;51.950;8.572;2022-12-29T08:07:06;98699.81;;;10.32;100.00
7441;BME280;29616;51.950;8.572;2022-12-29T08:09:35;98678.50;;;10.28;100.00
7441;BME280;29616;51.950;8.572;2022-12-29T08:12:04;98696.13;;;10.40;100.00
7441;BME280;29616;51.950;8.572;2022-12-29T08:14:32;98700.84;;;10.46;100.00
7441;BME280;29616;51.950;8.572;2022-12-29T08:17:00;98711.41;;;10.49;100.00
7441;BME280;29616;51.950;8.572;2022-12-29T08:19:28;98705.19;;;10.55;100.00
7441;BME280;29616;51.950;8.572;2022-12-29T08:21:56;98709.81;;;10.55;100.00
7441;BME280;29616;51.950;8.572;2022-12-29T08:24:25;98715.69;;;10.66;100.00
7441;BME280;29616;51.950;8.572;2022-12-29T08:26:54;98725.25;;;10.62;100.00
7441;BME280;29616;51.950;8.572;2022-12-29T08:29:22;98707.22;;;10.39;100.00
7441;BME280;29616;51.950;8.572;2022-12-29T08:31:51;98710.09;;;10.45;100.00
7441;BME280;29616;51.950;8.572;2022-12-29T08:34:19;98710.31;;;10.35;100.00
7441;BME280;29616;51.950;8.572;2022-12-29T08:36:48;98702.03;;;10.29;100.00
7441;BME280;29616;51.950;8.572;2022-12-29T08:39:16;98697.81;;;10.26;100.00
7441;BME280;29616;51.950;8.572;2022-12-29T08:41:44;98711.47;;;10.41;100.00
7441;BME280;29616;51.950;8.572;2022-12-29T08:44:13;98703.72;;;10.30;100.00
7441;BME280;29616;51.950;8.572;2022-12-29T08:46:41;98715.44;;;10.39;100.00
7441;BME280;29616;51.950;8.572;2022-12-29T08:49:10;98707.44;;;10.52;100.00
7441;BME280;29616;51.950;8.572;2022-12-29T08:51:38;98718.84;;;10.55;100.00
7441;BME280;29616;51.950;8.572;2022-12-29T08:54:06;98721.88;;;10.60;100.00
7441;BME280;29616;51.950;8.572;2022-12-29T08:56:35;98721.22;;;10.58;100.00
7441;BME280;29616;51.950;8.572;2022-12-29T08:59:03;98729.03;;;10.61;100.00
7441;BME280;29616;51.950;8.572;2022-12-29T09:01:33;98731.34;;;10.72;100.00
7441;BME280;29616;51.950;8.572;2022-12-29T09:04:04;98746.22;;;10.84;100.00
7441;BME280;29616;51.950;8.572;2022-12-29T09:06:43;98731.28;;;11.60;100.00
7441;BME280;29616;51.950;8.572;2022-12-29T09:09:12;98722.44;;;11.43;100.00
7441;BME280;29616;51.950;8.572;2022-12-29T09:11:41;98727.75;;;11.16;100.00
7441;BME280;29616;51.950;8.572;2022-12-29T09:14:09;98740.63;;;10.78;100.00
7441;BME280;29616;51.950;8.572;2022-12-29T09:16:38;98733.81;;;10.45;100.00
7441;BME280;29616;51.950;8.572;2022-12-29T09:19:20;98748.63;;;12.03;100.00
7441;BME280;29616;51.950;8.572;2022-12-29T09:21:49;98750.50;;;13.21;100.00
7441;BME280;29616;51.950;8.572;2022-12-29T09:24:17;98742.47;;;13.61;100.00
7441;BME280;29616;51.950;8.572;2022-12-29T09:26:46;98728.38;;;12.95;100.00
7441;BME280;29616;51.950;8.572;2022-12-29T09:29:14;98731.25;;;14.23;100.00
7441;BME280;29616;51.950;8.572;2022-12-29T09:31:43;98720.63;;;12.50;100.00
7441;BME280;29616;51.950;8.572;2022-12-29T09:34:12;98725.25;;;11.50;100.00
7441;BME280;29616;51.950;8.572;2022-12-29T09:36:40;98737.63;;;11.31;100.00
7441;BME280;29616;51.950;8.572;2022-12-29T09:39:08;98742.47;;;11.15;100.00
7441;BME280;29616;51.950;8.572;2022-12-29T09:41:37;98735.66;;;11.11;100.00
7441;BME280;29616;51.950;8.572;2022-12-29T09:44:08;98745.94;;;10.94;100.00
7441;BME280;29616;51.950;8.572;2022-12-29T09:46:42;98753.75;;;10.97;100.00
7441;BME280;29616;51.950;8.572;2022-12-29T09:49:16;98752.16;;;10.88;100.00
7441;BME280;29616;51.950;8.572;2022-12-29T09:51:49;98759.06;;;10.99;100.00
7441;BME280;29616;51.950;8.572;2022-12-29T09:54:27;98730.19;;;10.81;100.00
7441;BME280;29616;51.950;8.572;2022-12-29T09:57:00;98750.28;;;11.03;100.00
7441;BME280;29616;51.950;8.572;2022-12-29T09:59:32;98745.84;;;11.02;100.00
7441;BME280;29616;51.950;8.572;2022-12-29T10:02:06;98739.53;;;11.16;100.00
7441;BME280;29616;51.950;8.572;2022-12-29T10:04:42;98753.31;;;11.23;100.00
7441;BME280;29616;51.950;8.572;2022-12-29T10:07:13;98741.06;;;11.04;100.00
7441;BME280;29616;51.950;8.572;2022-12-29T10:09:57;98753.78;;;11.12;100.00
7441;BME280;29616;51.950;8.572;2022-12-29T10:12:30;98755.19;;;11.08;100.00
7441;BME280;29616;51.950;8.572;2022-12-29T10:15:04;98719.44;;;10.94;100.00
7441;BME280;29616;51.950;8.572;2022-12-29T10:17:38;98769.13;;;11.27;100.00
7441;BME280;29616;51.950;8.572;2022-12-29T10:20:23;98763.28;;;11.95;100.00
7441;BME280;29616;51.950;8.572;2022-12-29T10:23:04;98757.94;;;12.72;100.00
7441;BME280;29616;51.950;8.572;2022-12-29T10:25:37;98755.50;;;12.35;100.00
7441;BME280;29616;51.950;8.572;2022-12-29T10:28:14;98764.09;;;11.89;100.00
7441;BME280;29616;51.950;8.572;2022-12-29T10:30:43;98751.81;;;11.85;100.00
7441;BME280;29616;51.950;8.572;2022-12-29T10:33:15;98750.31;;;11.83;100.00
7441;BME280;29616;51.950;8.572;2022-12-29T10:35:47;98766.06;;;13.49;100.00
7441;BME280;29616;51.950;8.572;2022-12-29T10:38:19;98749.56;;;13.42;100.00
7441;BME280;29616;51.950;8.572;2022-12-29T10:40:53;98761.47;;;14.23;100.00
7441;BME280;29616;51.950;8.572;2022-12-29T10:43:26;98757.72;;;15.15;100.00
7441;BME280;29616;51.950;8.572;2022-12-29T10:45:57;98762.41;;;14.76;100.00
7441;BME280;29616;51.950;8.572;2022-12-29T10:48:27;98769.16;;;14.53;100.00
7441;BME280;29616;51.950;8.572;2022-12-29T10:51:00;98762.69;;;13.53;100.00
7441;BME280;29616;51.950;8.572;2022-12-29T10:53:34;98740.66;;;12.50;100.00
7441;BME280;29616;51.950;8.572;2022-12-29T10:56:05;98766.72;;;12.40;100.00
7441;BME280;29616;51.950;8.572;2022-12-29T10:58:39;98762.75;;;12.21;100.00
7441;BME280;29616;51.950;8.572;2022-12-29T11:01:12;98752.34;;;12.16;100.00
7441;BME280;29616;51.950;8.572;2022-12-29T11:03:46;98750.00;;;12.13;100.00
7441;BME280;29616;51.950;8.572;2022-12-29T11:06:19;98734.88;;;12.18;100.00
7441;BME280;29616;51.950;8.572;2022-12-29T11:08:52;98721.91;;;12.05;100.00
7441;BME280;29616;51.950;8.572;2022-12-29T11:11:26;98729.56;;;11.95;100.00
7441;BME280;29616;51.950;8.572;2022-12-29T11:13:56;98725.50;;;12.05;100.00
7441;BME280;29616;51.950;8.572;2022-12-29T11:16:29;98757.69;;;12.03;100.00
7441;BME280;29616;51.950;8.572;2022-12-29T11:18:58;98750.59;;;12.09;100.00
7441;BME280;29616;51.950;8.572;2022-12-29T11:21:31;98746.00;;;11.95;100.00
7441;BME280;29616;51.950;8.572;2022-12-29T11:24:00;98745.59;;;11.77;100.00
7441;BME280;29616;51.950;8.572;2022-12-29T11:26:30;98753.03;;;11.83;100.00
7441;BME280;29616;51.950;8.572;2022-12-29T11:29:16;98766.22;;;11.94;100.00
7441;BME280;29616;51.950;8.572;2022-12-29T11:31:46;98747.34;;;11.84;100.00
7441;BME280;29616;51.950;8.572;2022-12-29T11:34:19;98753.50;;;11.86;100.00
7441;BME280;29616;51.950;8.572;2022-12-29T11:36:49;98755.50;;;11.78;100.00
7441;BME280;29616;51.950;8.572;2022-12-29T11:39:30;98755.97;;;11.81;100.00
7441;BME280;29616;51.950;8.572;2022-12-29T11:41:59;98770.06;;;11.78;100.00
7441;BME280;29616;51.950;8.572;2022-12-29T11:44:32;98770.50;;;11.67;100.00
7441;BME280;29616;51.950;8.572;2022-12-29T11:47:03;98762.81;;;11.71;100.00
7441;BME280;29616;51.950;8.572;2022-12-29T11:49:33;98756.81;;;11.82;100.00
7441;BME280;29616;51.950;8.572;2022-12-29T11:52:03;98769.41;;;11.76;100.00
7441;BME280;29616;51.950;8.572;2022-12-29T11:54:31;98765.97;;;11.74;100.00
7441;BME280;29616;51.950;8.572;2022-12-29T11:57:09;98764.09;;;11.75;100.00
7441;BME280;29616;51.950;8.572;2022-12-29T11:59:42;98776.25;;;11.87;100.00
7441;BME280;29616;51.950;8.572;2022-12-29T12:02:20;98776.66;;;11.84;100.00
7441;BME280;29616;51.950;8.572;2022-12-29T12:05:00;98760.50;;;11.74;100.00
7441;BME280;29616;51.950;8.572;2022-12-29T12:07:36;98772.59;;;11.80;100.00
7441;BME280;29616;51.950;8.572;2022-12-29T12:10:08;98774.09;;;11.82;100.00
7441;BME280;29616;51.950;8.572;2022-12-29T12:12:41;98785.28;;;11.87;100.00
7441;BME280;29616;51.950;8.572;2022-12-29T12:15:13;98782.94;;;11.84;100.00
7441;BME280;29616;51.950;8.572;2022-12-29T12:17:54;98772.19;;;11.83;100.00
7441;BME280;29616;51.950;8.572;2022-12-29T12:20:27;98778.53;;;11.83;100.00
7441;BME280;29616;51.950;8.572;2022-12-29T12:23:14;98785.41;;;11.79;100.00
7441;BME280;29616;51.950;8.572;2022-12-29T12:25:48;98763.34;;;11.81;100.00
7441;BME280;29616;51.950;8.572;2022-12-29T12:28:20;98781.75;;;11.87;100.00
7441;BME280;29616;51.950;8.572;2022-12-29T12:30:56;98754.41;;;11.57;100.00
7441;BME280;29616;51.950;8.572;2022-12-29T12:33:27;98786.19;;;11.73;100.00
7441;BME280;29616;51.950;8.572;2022-12-29T12:36:14;98787.88;;;11.74;100.00
7441;BME280;29616;51.950;8.572;2022-12-29T12:38:49;98796.16;;;11.66;100.00
7441;BME280;29616;51.950;8.572;2022-12-29T12:41:26;98798.38;;;11.71;100.00
7441;BME280;29616;51.950;8.572;2022-12-29T12:44:00;98788.47;;;11.70;100.00
7441;BME280;29616;51.950;8.572;2022-12-29T12:46:37;98809.31;;;11.71;100.00
7441;BME280;29616;51.950;8.572;2022-12-29T12:49:21;98799.69;;;11.75;100.00
7441;BME280;29616;51.950;8.572;2022-12-29T12:51:53;98816.69;;;11.70;100.00
7441;BME280;29616;51.950;8.572;2022-12-29T12:54:37;98820.50;;;11.61;100.00
7441;BME280;29616;51.950;8.572;2022-12-29T12:57:12;98822.88;;;11.64;100.00
7441;BME280;29616;51.950;8.572;2022-12-29T12:59:48;98825.75;;;11.71;100.00
7441;BME280;29616;51.950;8.572;2022-12-29T13:02:24;98823.91;;;11.63;100.00
7441;BME280;29616;51.950;8.572;2022-12-29T13:05:09;98818.44;;;11.63;100.00
7441;BME280;29616;51.950;8.572;2022-12-29T13:07:49;98812.31;;;11.61;100.00
7441;BME280;29616;51.950;8.572;2022-12-29T13:10:35;98821.25;;;11.55;100.00
7441;BME280;29616;51.950;8.572;2022-12-29T13:13:24;98836.28;;;11.59;100.00
7441;BME280;29616;51.950;8.572;2022-12-29T13:15:57;98848.84;;;11.53;100.00
7441;BME280;29616;51.950;8.572;2022-12-29T13:18:31;98836.84;;;11.54;100.00
7441;BME280;29616;51.950;8.572;2022-12-29T13:21:04;98851.69;;;11.60;100.00
7441;BME280;29616;51.950;8.572;2022-12-29T13:23:36;98844.88;;;11.56;100.00
7441;BME280;29616;51.950;8.572;2022-12-29T13:26:11;98854.09;;;11.55;100.00
7441;BME280;29616;51.950;8.572;2022-12-29T13:28:50;98867.25;;;11.60;100.00
7441;BME280;29616;51.950;8.572;2022-12-29T13:31:24;98868.75;;;11.62;100.00
7441;BME280;29616;51.950;8.572;2022-12-29T13:33:58;98859.19;;;11.58;100.00